ALK101 VCBI-VRMM
Flight info
| Callsign | ALK101 |
|---|---|
| Flight time | N/A |
| Altitude | 36000 |
| Route | LALU1D TELIG M512 HOKEY HOKE1A |
| Aircraft | A333/H-SDE3GHIJ2J3J5M1RVWXY/LB2D1 |
Departure
| Time | 2026-04-28 12:58 |
|---|---|
| Airport | Bandaranaike International Colombo Airport (VCBI) |
Arrival
| Time | N/A |
|---|---|
| Airport | Velana International Airport (VRMM) |
| Time | Latitude | Longitude | Altitude | Speed | Heading |
|---|---|---|---|---|---|
| 2026-04-28 12:40 | 7.17497 | 79.88329 | 49 ft | 0 kts | 216° |
| 2026-04-28 12:49 | 7.17503 | 79.88333 | 49 ft | 2 kts | 216° |
| 2026-04-28 12:49 | 7.17515 | 79.88342 | 50 ft | 2 kts | 216° |
| 2026-04-28 12:49 | 7.17526 | 79.88351 | 50 ft | 2 kts | 239° |
| 2026-04-28 12:50 | 7.17532 | 79.88366 | 50 ft | 2 kts | 263° |
| 2026-04-28 12:50 | 7.17532 | 79.88380 | 50 ft | 2 kts | 286° |
| 2026-04-28 12:50 | 7.17527 | 79.88393 | 50 ft | 0 kts | 307° |
| 2026-04-28 12:50 | 7.17524 | 79.88397 | 51 ft | 0 kts | 308° |
| 2026-04-28 12:52 | 7.17525 | 79.88395 | 50 ft | 2 kts | 308° |
| 2026-04-28 12:52 | 7.17567 | 79.88341 | 50 ft | 13 kts | 308° |
| 2026-04-28 12:52 | 7.17634 | 79.88271 | 48 ft | 14 kts | 339° |
| 2026-04-28 12:52 | 7.17718 | 79.88302 | 49 ft | 12 kts | 37° |
| 2026-04-28 12:53 | 7.17808 | 79.88370 | 50 ft | 20 kts | 37° |
| 2026-04-28 12:53 | 7.17948 | 79.88476 | 50 ft | 27 kts | 38° |
| 2026-04-28 12:53 | 7.18100 | 79.88595 | 51 ft | 26 kts | 37° |
| 2026-04-28 12:53 | 7.18243 | 79.88704 | 51 ft | 25 kts | 37° |
| 2026-04-28 12:54 | 7.18384 | 79.88811 | 51 ft | 24 kts | 37° |
| 2026-04-28 12:54 | 7.18513 | 79.88910 | 51 ft | 22 kts | 37° |
| 2026-04-28 12:54 | 7.18640 | 79.89008 | 50 ft | 22 kts | 37° |
| 2026-04-28 12:54 | 7.18765 | 79.89104 | 48 ft | 22 kts | 37° |
| 2026-04-28 12:55 | 7.18895 | 79.89204 | 46 ft | 23 kts | 37° |
| 2026-04-28 12:55 | 7.19019 | 79.89299 | 46 ft | 22 kts | 37° |
| 2026-04-28 12:55 | 7.19129 | 79.89383 | 45 ft | 15 kts | 37° |
| 2026-04-28 12:55 | 7.19210 | 79.89412 | 44 ft | 10 kts | 338° |
| 2026-04-28 12:56 | 7.19258 | 79.89367 | 45 ft | 8 kts | 310° |
| 2026-04-28 12:56 | 7.19288 | 79.89327 | 47 ft | 5 kts | 300° |
| 2026-04-28 12:56 | 7.19294 | 79.89291 | 47 ft | 5 kts | 261° |
| 2026-04-28 12:56 | 7.19269 | 79.89260 | 48 ft | 5 kts | 219° |
| 2026-04-28 12:57 | 7.19231 | 79.89230 | 48 ft | 10 kts | 218° |
| 2026-04-28 12:57 | 7.19017 | 79.89066 | 50 ft | 75 kts | 217° |
| 2026-04-28 12:57 | 7.18405 | 79.88596 | 50 ft | 143 kts | 217° |
| 2026-04-28 12:57 | 7.17473 | 79.87886 | 256 ft | 178 kts | 216° |
| 2026-04-28 12:58 | 7.16553 | 79.87174 | 1143 ft | 166 kts | 218° |
| 2026-04-28 12:58 | 7.15649 | 79.86478 | 1946 ft | 164 kts | 216° |
| 2026-04-28 12:58 | 7.14714 | 79.85768 | 2278 ft | 176 kts | 215° |
| 2026-04-28 12:58 | 7.13676 | 79.84975 | 2574 ft | 199 kts | 216° |
| 2026-04-28 12:59 | 7.12528 | 79.84094 | 3073 ft | 216 kts | 216° |
| 2026-04-28 12:59 | 7.11287 | 79.83141 | 3571 ft | 233 kts | 216° |
| 2026-04-28 12:59 | 7.09935 | 79.82101 | 4081 ft | 250 kts | 216° |
| 2026-04-28 12:59 | 7.08501 | 79.81000 | 4589 ft | 268 kts | 217° |
| 2026-04-28 13:00 | 7.07008 | 79.79849 | 5302 ft | 275 kts | 216° |
| 2026-04-28 13:00 | 7.05491 | 79.78687 | 6031 ft | 280 kts | 217° |
| 2026-04-28 13:00 | 7.03929 | 79.77485 | 6800 ft | 285 kts | 216° |
| 2026-04-28 13:00 | 7.02355 | 79.76275 | 7585 ft | 289 kts | 216° |
| 2026-04-28 13:01 | 7.00737 | 79.75034 | 8394 ft | 291 kts | 216° |
| 2026-04-28 13:01 | 6.99128 | 79.73814 | 9148 ft | 293 kts | 215° |
| 2026-04-28 13:01 | 6.97705 | 79.72329 | 9836 ft | 299 kts | 234° |
| 2026-04-28 13:01 | 6.96490 | 79.70616 | 10368 ft | 309 kts | 232° |
| 2026-04-28 13:02 | 6.95172 | 79.68805 | 10667 ft | 328 kts | 232° |
| 2026-04-28 13:02 | 6.93796 | 79.66916 | 10891 ft | 347 kts | 233° |
| 2026-04-28 13:02 | 6.92323 | 79.64895 | 11097 ft | 365 kts | 233° |
| 2026-04-28 13:02 | 6.90787 | 79.62783 | 11395 ft | 378 kts | 232° |
| 2026-04-28 13:03 | 6.89244 | 79.60666 | 11996 ft | 381 kts | 233° |
| 2026-04-28 13:03 | 6.87672 | 79.58511 | 12565 ft | 384 kts | 232° |
| 2026-04-28 13:03 | 6.86080 | 79.56326 | 13102 ft | 387 kts | 232° |
| 2026-04-28 13:03 | 6.84477 | 79.54128 | 13630 ft | 391 kts | 232° |
| 2026-04-28 13:04 | 6.82852 | 79.51901 | 14105 ft | 396 kts | 232° |
| 2026-04-28 13:04 | 6.81231 | 79.49682 | 14578 ft | 400 kts | 232° |
| 2026-04-28 13:04 | 6.79567 | 79.47401 | 15058 ft | 403 kts | 232° |
| 2026-04-28 13:04 | 6.77889 | 79.45101 | 15485 ft | 408 kts | 232° |
| 2026-04-28 13:05 | 6.76217 | 79.42808 | 15910 ft | 412 kts | 232° |
| 2026-04-28 13:05 | 6.74520 | 79.40482 | 16360 ft | 415 kts | 232° |
| 2026-04-28 13:05 | 6.72790 | 79.38112 | 16771 ft | 420 kts | 232° |
| 2026-04-28 13:05 | 6.71056 | 79.35736 | 17188 ft | 423 kts | 232° |
| 2026-04-28 13:06 | 6.69299 | 79.33328 | 17549 ft | 428 kts | 232° |
| 2026-04-28 13:06 | 6.67540 | 79.30919 | 17973 ft | 430 kts | 232° |
| 2026-04-28 13:06 | 6.65752 | 79.28470 | 18387 ft | 433 kts | 232° |
| 2026-04-28 13:06 | 6.63976 | 79.26035 | 18754 ft | 437 kts | 232° |
| 2026-04-28 13:07 | 6.62169 | 79.23563 | 19103 ft | 440 kts | 232° |
| 2026-04-28 13:07 | 6.60349 | 79.21070 | 19470 ft | 443 kts | 232° |
| 2026-04-28 13:07 | 6.58508 | 79.18551 | 19827 ft | 446 kts | 232° |
| 2026-04-28 13:07 | 6.56669 | 79.16032 | 20174 ft | 449 kts | 232° |
| 2026-04-28 13:08 | 6.54807 | 79.13484 | 20492 ft | 452 kts | 232° |
| 2026-04-28 13:08 | 6.52947 | 79.10941 | 20803 ft | 455 kts | 232° |
| 2026-04-28 13:08 | 6.51063 | 79.08363 | 21128 ft | 457 kts | 232° |
| 2026-04-28 13:08 | 6.49177 | 79.05782 | 21417 ft | 460 kts | 232° |
| 2026-04-28 13:09 | 6.47265 | 79.03168 | 21715 ft | 463 kts | 232° |
| 2026-04-28 13:09 | 6.45357 | 79.00555 | 21998 ft | 465 kts | 232° |
| 2026-04-28 13:09 | 6.43420 | 78.97910 | 22293 ft | 468 kts | 232° |
| 2026-04-28 13:09 | 6.41493 | 78.95274 | 22610 ft | 469 kts | 232° |
| 2026-04-28 13:10 | 6.39560 | 78.92632 | 22906 ft | 471 kts | 232° |
| 2026-04-28 13:10 | 6.37621 | 78.89982 | 23185 ft | 473 kts | 232° |
| 2026-04-28 13:10 | 6.35673 | 78.87321 | 23494 ft | 474 kts | 232° |
| 2026-04-28 13:10 | 6.33693 | 78.84614 | 23807 ft | 476 kts | 232° |
| 2026-04-28 13:11 | 6.31731 | 78.81935 | 24076 ft | 478 kts | 232° |
| 2026-04-28 13:11 | 6.29775 | 78.79263 | 24362 ft | 479 kts | 232° |
| 2026-04-28 13:11 | 6.27790 | 78.76553 | 24650 ft | 481 kts | 232° |
| 2026-04-28 13:11 | 6.25795 | 78.73827 | 24947 ft | 482 kts | 232° |
| 2026-04-28 13:12 | 6.23810 | 78.71116 | 25206 ft | 484 kts | 232° |
| 2026-04-28 13:12 | 6.21819 | 78.68398 | 25475 ft | 486 kts | 232° |
| 2026-04-28 13:12 | 6.19826 | 78.65678 | 25774 ft | 486 kts | 232° |
| 2026-04-28 13:12 | 6.17815 | 78.62933 | 26029 ft | 488 kts | 232° |
| 2026-04-28 13:13 | 6.15784 | 78.60162 | 26303 ft | 490 kts | 232° |
| 2026-04-28 13:13 | 6.13760 | 78.57394 | 26573 ft | 491 kts | 233° |
| 2026-04-28 13:13 | 6.11823 | 78.54592 | 26765 ft | 492 kts | 230° |
| 2026-04-28 13:13 | 6.09577 | 78.52007 | 26978 ft | 493 kts | 229° |
| 2026-04-28 13:14 | 6.07390 | 78.49336 | 27253 ft | 494 kts | 230° |
| 2026-04-28 13:14 | 6.05217 | 78.46627 | 27519 ft | 496 kts | 230° |
| 2026-04-28 13:14 | 6.03073 | 78.43935 | 27731 ft | 498 kts | 230° |
| 2026-04-28 13:14 | 6.00898 | 78.41197 | 27932 ft | 500 kts | 230° |
| 2026-04-28 13:15 | 5.98717 | 78.38450 | 28172 ft | 501 kts | 230° |
| 2026-04-28 13:15 | 5.96535 | 78.35704 | 28388 ft | 503 kts | 231° |
| 2026-04-28 13:15 | 5.94355 | 78.32959 | 28652 ft | 503 kts | 230° |
| 2026-04-28 13:15 | 5.92186 | 78.30228 | 28898 ft | 503 kts | 230° |
| 2026-04-28 13:16 | 5.89979 | 78.27450 | 29177 ft | 503 kts | 230° |
| 2026-04-28 13:16 | 5.87804 | 78.24712 | 29512 ft | 501 kts | 230° |
| 2026-04-28 13:16 | 5.85656 | 78.22010 | 29851 ft | 499 kts | 230° |
| 2026-04-28 13:16 | 5.83495 | 78.19291 | 30189 ft | 498 kts | 230° |
| 2026-04-28 13:17 | 5.81313 | 78.16547 | 30558 ft | 496 kts | 230° |
| 2026-04-28 13:17 | 5.79168 | 78.13847 | 30892 ft | 494 kts | 230° |
| 2026-04-28 13:17 | 5.77025 | 78.11152 | 31229 ft | 493 kts | 230° |
| 2026-04-28 13:17 | 5.74888 | 78.08466 | 31565 ft | 491 kts | 230° |
| 2026-04-28 13:18 | 5.72750 | 78.05776 | 31893 ft | 490 kts | 230° |
| 2026-04-28 13:18 | 5.70635 | 78.03118 | 32263 ft | 488 kts | 230° |
| 2026-04-28 13:18 | 5.68623 | 78.00384 | 32582 ft | 488 kts | 238° |
| 2026-04-28 13:18 | 5.67281 | 77.97257 | 32857 ft | 489 kts | 252° |
| 2026-04-28 13:19 | 5.66333 | 77.94025 | 33212 ft | 488 kts | 252° |
| 2026-04-28 13:19 | 5.65343 | 77.90742 | 33583 ft | 486 kts | 252° |
| 2026-04-28 13:19 | 5.64365 | 77.87517 | 33998 ft | 484 kts | 252° |
| 2026-04-28 13:19 | 5.63384 | 77.84291 | 34399 ft | 483 kts | 252° |
| 2026-04-28 13:20 | 5.62408 | 77.81079 | 34823 ft | 481 kts | 252° |
| 2026-04-28 13:20 | 5.61441 | 77.77900 | 35175 ft | 480 kts | 252° |
| 2026-04-28 13:20 | 5.60471 | 77.74713 | 35538 ft | 479 kts | 252° |
| 2026-04-28 13:20 | 5.59477 | 77.71448 | 35845 ft | 479 kts | 252° |
| 2026-04-28 13:21 | 5.58472 | 77.68145 | 35787 ft | 481 kts | 252° |
| 2026-04-28 13:21 | 5.56516 | 77.61723 | 35823 ft | 477 kts | 252° |
| 2026-04-28 13:22 | 5.54565 | 77.55319 | 35824 ft | 477 kts | 252° |
| 2026-04-28 13:22 | 5.52603 | 77.48884 | 35820 ft | 477 kts | 252° |
| 2026-04-28 13:23 | 5.50655 | 77.42496 | 35823 ft | 477 kts | 252° |
| 2026-04-28 13:23 | 5.48717 | 77.36141 | 35825 ft | 477 kts | 252° |
| 2026-04-28 13:24 | 5.46782 | 77.29800 | 35819 ft | 477 kts | 252° |
| 2026-04-28 13:24 | 5.44843 | 77.23447 | 35817 ft | 477 kts | 252° |
| 2026-04-28 13:25 | 5.42902 | 77.17094 | 35818 ft | 476 kts | 252° |
| 2026-04-28 13:25 | 5.40950 | 77.10705 | 35821 ft | 475 kts | 252° |
| 2026-04-28 13:26 | 5.39025 | 77.04410 | 35823 ft | 476 kts | 252° |
| 2026-04-28 13:26 | 5.37080 | 76.98050 | 35820 ft | 477 kts | 252° |
| 2026-04-28 13:27 | 5.35140 | 76.91708 | 35822 ft | 477 kts | 252° |
| 2026-04-28 13:27 | 5.33190 | 76.85334 | 35823 ft | 476 kts | 252° |
| 2026-04-28 13:28 | 5.31254 | 76.79013 | 35824 ft | 476 kts | 252° |
| 2026-04-28 13:28 | 5.29314 | 76.72676 | 35818 ft | 475 kts | 252° |
| 2026-04-28 13:29 | 5.27372 | 76.66339 | 35822 ft | 476 kts | 252° |
| 2026-04-28 13:29 | 5.25420 | 76.59974 | 35831 ft | 476 kts | 252° |
| 2026-04-28 13:30 | 5.23476 | 76.53632 | 35832 ft | 476 kts | 252° |
| 2026-04-28 13:30 | 5.21539 | 76.47321 | 35835 ft | 477 kts | 252° |
| 2026-04-28 13:31 | 5.18607 | 76.37766 | 35831 ft | 476 kts | 252° |
| 2026-04-28 13:31 | 5.16656 | 76.31413 | 35840 ft | 476 kts | 252° |
| 2026-04-28 13:32 | 5.14706 | 76.25063 | 35839 ft | 476 kts | 252° |
| 2026-04-28 13:32 | 5.12759 | 76.18728 | 35838 ft | 476 kts | 252° |
| 2026-04-28 13:33 | 5.10813 | 76.12399 | 35828 ft | 476 kts | 252° |
| 2026-04-28 13:33 | 5.08856 | 76.06020 | 35823 ft | 477 kts | 252° |
| 2026-04-28 13:34 | 5.06917 | 75.99704 | 35821 ft | 476 kts | 252° |
| 2026-04-28 13:34 | 5.04966 | 75.93352 | 35822 ft | 476 kts | 252° |
| 2026-04-28 13:35 | 5.03015 | 75.87001 | 35822 ft | 476 kts | 252° |
| 2026-04-28 13:35 | 5.01060 | 75.80642 | 35821 ft | 477 kts | 252° |
| 2026-04-28 13:36 | 4.99105 | 75.74284 | 35822 ft | 477 kts | 252° |
| 2026-04-28 13:36 | 4.97142 | 75.67902 | 35823 ft | 478 kts | 252° |
| 2026-04-28 13:37 | 4.94629 | 75.61781 | 35830 ft | 475 kts | 238° |
| 2026-04-28 13:37 | 4.91286 | 75.56093 | 35817 ft | 476 kts | 239° |
| 2026-04-28 13:38 | 4.87971 | 75.50311 | 35820 ft | 477 kts | 240° |
| 2026-04-28 13:38 | 4.84683 | 75.44566 | 35822 ft | 477 kts | 240° |
| 2026-04-28 13:39 | 4.81367 | 75.38772 | 35823 ft | 477 kts | 240° |
| 2026-04-28 13:39 | 4.78079 | 75.33027 | 35820 ft | 477 kts | 240° |
| 2026-04-28 13:40 | 4.74768 | 75.27245 | 35823 ft | 477 kts | 240° |
| 2026-04-28 13:40 | 4.71481 | 75.21505 | 35828 ft | 477 kts | 240° |
| 2026-04-28 13:41 | 4.69813 | 75.18591 | 35333 ft | 487 kts | 240° |
| 2026-04-28 13:41 | 4.68128 | 75.15650 | 34724 ft | 482 kts | 240° |
| 2026-04-28 13:41 | 4.66484 | 75.12779 | 34104 ft | 472 kts | 240° |
| 2026-04-28 13:41 | 4.64846 | 75.09919 | 33094 ft | 471 kts | 239° |
| 2026-04-28 13:42 | 4.63215 | 75.07075 | 32440 ft | 476 kts | 239° |
| 2026-04-28 13:42 | 4.61565 | 75.04196 | 31681 ft | 481 kts | 239° |
| 2026-04-28 13:42 | 4.59905 | 75.01301 | 30978 ft | 482 kts | 240° |
| 2026-04-28 13:42 | 4.58236 | 74.98388 | 30369 ft | 481 kts | 240° |
| 2026-04-28 13:43 | 4.56561 | 74.95467 | 29824 ft | 478 kts | 240° |
| 2026-04-28 13:43 | 4.54924 | 74.92609 | 29301 ft | 475 kts | 240° |
| 2026-04-28 13:43 | 4.53272 | 74.89728 | 28735 ft | 472 kts | 240° |
| 2026-04-28 13:43 | 4.51680 | 74.86951 | 28058 ft | 452 kts | 239° |
| 2026-04-28 13:44 | 4.50153 | 74.84289 | 27534 ft | 434 kts | 239° |
| 2026-04-28 13:44 | 4.48653 | 74.81674 | 27015 ft | 429 kts | 239° |
| 2026-04-28 13:44 | 4.47186 | 74.79116 | 26553 ft | 428 kts | 239° |
| 2026-04-28 13:44 | 4.45687 | 74.76504 | 26110 ft | 428 kts | 239° |
| 2026-04-28 13:45 | 4.44213 | 74.73935 | 25673 ft | 427 kts | 239° |
| 2026-04-28 13:45 | 4.42745 | 74.71377 | 25234 ft | 426 kts | 239° |
| 2026-04-28 13:45 | 4.41259 | 74.68786 | 24775 ft | 424 kts | 239° |
| 2026-04-28 13:45 | 4.39794 | 74.66235 | 24295 ft | 421 kts | 239° |
| 2026-04-28 13:46 | 4.38347 | 74.63712 | 23796 ft | 418 kts | 239° |
| 2026-04-28 13:46 | 4.36914 | 74.61217 | 23291 ft | 415 kts | 239° |
| 2026-04-28 13:46 | 4.35472 | 74.58704 | 22773 ft | 412 kts | 239° |
| 2026-04-28 13:46 | 4.34054 | 74.56235 | 22262 ft | 410 kts | 239° |
| 2026-04-28 13:47 | 4.32629 | 74.53753 | 21768 ft | 406 kts | 239° |
| 2026-04-28 13:47 | 4.31229 | 74.51314 | 21281 ft | 403 kts | 239° |
| 2026-04-28 13:47 | 4.29851 | 74.48915 | 20809 ft | 399 kts | 239° |
| 2026-04-28 13:47 | 4.28462 | 74.46497 | 20341 ft | 396 kts | 239° |
| 2026-04-28 13:48 | 4.27107 | 74.44138 | 19878 ft | 394 kts | 239° |
| 2026-04-28 13:48 | 4.25736 | 74.41750 | 19406 ft | 391 kts | 238° |
| 2026-04-28 13:48 | 4.24397 | 74.39420 | 18949 ft | 390 kts | 238° |
| 2026-04-28 13:48 | 4.23042 | 74.37064 | 18480 ft | 386 kts | 239° |
| 2026-04-28 13:49 | 4.21714 | 74.34751 | 18020 ft | 383 kts | 238° |
| 2026-04-28 13:49 | 4.20385 | 74.32439 | 17551 ft | 381 kts | 238° |
| 2026-04-28 13:49 | 4.19065 | 74.30141 | 17087 ft | 378 kts | 238° |
| 2026-04-28 13:49 | 4.17776 | 74.27900 | 16628 ft | 374 kts | 238° |
| 2026-04-28 13:50 | 4.16473 | 74.25632 | 16163 ft | 370 kts | 238° |
| 2026-04-28 13:50 | 4.15210 | 74.23438 | 15706 ft | 365 kts | 239° |
| 2026-04-28 13:50 | 4.13952 | 74.21249 | 15246 ft | 362 kts | 239° |
| 2026-04-28 13:50 | 4.12706 | 74.19081 | 14783 ft | 357 kts | 239° |
| 2026-04-28 13:51 | 4.11459 | 74.16914 | 14312 ft | 353 kts | 239° |
| 2026-04-28 13:51 | 4.10243 | 74.14798 | 13841 ft | 350 kts | 239° |
| 2026-04-28 13:51 | 4.09037 | 74.12701 | 13365 ft | 347 kts | 239° |
| 2026-04-28 13:51 | 4.07852 | 74.10641 | 12892 ft | 342 kts | 239° |
| 2026-04-28 13:52 | 4.06675 | 74.08594 | 12428 ft | 339 kts | 239° |
| 2026-04-28 13:52 | 4.05498 | 74.06547 | 11973 ft | 336 kts | 240° |
| 2026-04-28 13:52 | 4.04333 | 74.04521 | 11551 ft | 332 kts | 240° |
| 2026-04-28 13:52 | 4.03226 | 74.02597 | 11272 ft | 311 kts | 240° |
| 2026-04-28 13:53 | 4.02178 | 74.00775 | 10973 ft | 293 kts | 240° |
| 2026-04-28 13:53 | 4.01185 | 73.99050 | 10738 ft | 275 kts | 240° |
| 2026-04-28 13:53 | 4.00248 | 73.97419 | 10339 ft | 268 kts | 240° |
| 2026-04-28 13:53 | 3.99334 | 73.95827 | 10251 ft | 266 kts | 240° |
| 2026-04-28 13:54 | 3.98402 | 73.94205 | 10160 ft | 268 kts | 240° |
| 2026-04-28 13:54 | 3.97474 | 73.92592 | 10136 ft | 266 kts | 240° |
| 2026-04-28 13:54 | 3.96557 | 73.90997 | 9967 ft | 263 kts | 240° |
| 2026-04-28 13:54 | 3.95646 | 73.89414 | 9642 ft | 260 kts | 240° |
| 2026-04-28 13:55 | 3.94966 | 73.87783 | 9349 ft | 253 kts | 262° |
| 2026-04-28 13:55 | 3.94920 | 73.86021 | 9125 ft | 250 kts | 270° |
| 2026-04-28 13:55 | 3.95106 | 73.84318 | 8811 ft | 247 kts | 290° |
| 2026-04-28 13:55 | 3.96039 | 73.82903 | 8430 ft | 243 kts | 315° |
| 2026-04-28 13:56 | 3.97095 | 73.81653 | 8223 ft | 232 kts | 317° |
| 2026-04-28 13:56 | 3.98432 | 73.80816 | 8013 ft | 221 kts | 328° |
| 2026-04-28 13:56 | 3.99433 | 73.79718 | 7863 ft | 211 kts | 292° |
| 2026-04-28 13:56 | 3.99815 | 73.78320 | 7779 ft | 215 kts | 282° |
| 2026-04-28 13:57 | 4.00033 | 73.76703 | 7711 ft | 250 kts | 280° |
| 2026-04-28 13:57 | 4.00499 | 73.75023 | 7393 ft | 254 kts | 275° |